createdAt,value
2019-04-05T00:00:14.856Z,18.75
2019-04-05T00:01:12.397Z,18.75
2019-04-05T00:02:09.897Z,18.69
2019-04-05T00:03:06.627Z,18.75
2019-04-05T00:04:03.235Z,18.75
2019-04-05T00:04:59.940Z,18.69
2019-04-05T00:05:56.646Z,18.69
2019-04-05T00:06:53.344Z,18.69
2019-04-05T00:07:50.056Z,18.69
2019-04-05T00:08:46.768Z,18.69
2019-04-05T00:09:43.476Z,18.69
2019-04-05T00:10:40.180Z,18.69
2019-04-05T00:11:36.888Z,18.69
2019-04-05T00:12:33.584Z,18.69
2019-04-05T00:13:30.296Z,18.69
2019-04-05T00:14:27.005Z,18.69
2019-04-05T00:15:23.705Z,18.69
2019-04-05T00:16:20.411Z,18.69
2019-04-05T00:17:17.100Z,18.69
2019-04-05T00:18:13.716Z,18.69
2019-04-05T00:19:10.492Z,18.69
2019-04-05T00:20:07.200Z,18.69
2019-04-05T00:21:03.899Z,18.62
2019-04-05T00:22:00.600Z,18.69
2019-04-05T00:22:57.329Z,18.62
2019-04-05T00:23:54.053Z,18.62
2019-04-05T00:24:50.767Z,18.62
2019-04-05T00:25:47.468Z,18.62
2019-04-05T00:26:44.170Z,18.62
2019-04-05T00:27:40.876Z,18.62
2019-04-05T00:28:37.581Z,18.62
2019-04-05T00:29:34.301Z,18.62
2019-04-05T00:30:31.000Z,18.62
2019-04-05T00:31:27.709Z,18.62
2019-04-05T00:32:24.408Z,18.62
2019-04-05T00:33:21.021Z,18.62
2019-04-05T00:34:17.756Z,18.62
2019-04-05T00:35:14.482Z,18.62
2019-04-05T00:36:11.177Z,18.62
2019-04-05T00:37:07.881Z,18.62
2019-04-05T00:38:04.495Z,18.62
2019-04-05T00:39:01.188Z,18.62
2019-04-05T00:39:57.925Z,18.62
2019-04-05T00:40:54.637Z,18.56
2019-04-05T00:41:51.340Z,18.56
2019-04-05T00:42:48.048Z,18.56
2019-04-05T00:43:44.749Z,18.56
2019-04-05T00:44:41.461Z,18.56
2019-04-05T00:45:38.199Z,18.56
2019-04-05T00:46:34.903Z,18.56
2019-04-05T00:47:31.610Z,18.56
2019-04-05T00:48:28.317Z,18.56
2019-04-05T00:49:25.024Z,18.56
2019-04-05T00:50:21.730Z,18.56
2019-04-05T00:51:18.464Z,18.56
2019-04-05T00:52:15.169Z,18.56
2019-04-05T00:53:11.881Z,18.56
2019-04-05T00:54:08.594Z,18.56
2019-04-05T00:55:05.302Z,18.56
2019-04-05T00:56:02.034Z,18.56
2019-04-05T00:56:58.749Z,18.50
2019-04-05T00:57:55.521Z,18.56
2019-04-05T00:58:52.227Z,18.56
2019-04-05T00:59:48.925Z,18.50
2019-04-05T01:00:45.641Z,18.50
2019-04-05T01:01:42.373Z,18.50
2019-04-05T01:02:39.081Z,18.50
2019-04-05T01:03:35.776Z,18.50
2019-04-05T01:04:32.485Z,18.50
2019-04-05T01:05:29.193Z,18.50
2019-04-05T01:06:25.901Z,18.50
2019-04-05T01:07:22.624Z,18.50
2019-04-05T01:08:19.329Z,18.50
2019-04-05T01:09:16.029Z,18.50
2019-04-05T01:10:12.732Z,18.50
2019-04-05T01:11:09.343Z,18.50
2019-04-05T01:12:06.069Z,18.50
2019-04-05T01:13:02.785Z,18.50
2019-04-05T01:13:59.493Z,18.50
2019-04-05T01:14:56.261Z,18.50
2019-04-05T01:15:52.902Z,18.50
2019-04-05T01:16:49.609Z,18.50
2019-04-05T01:17:46.323Z,18.44
2019-04-05T01:18:43.033Z,18.44
2019-04-05T01:19:39.750Z,18.44
2019-04-05T01:20:36.461Z,18.44
2019-04-05T01:21:33.161Z,18.44
2019-04-05T01:22:29.893Z,18.44
2019-04-05T01:23:26.602Z,18.44
2019-04-05T01:24:23.313Z,18.44
2019-04-05T01:25:20.018Z,18.44
2019-04-05T01:26:16.721Z,18.44
2019-04-05T01:27:13.420Z,18.44
2019-04-05T01:28:10.159Z,18.44
2019-04-05T01:29:06.867Z,18.44
2019-04-05T01:30:03.772Z,18.44
2019-04-05T01:31:00.481Z,18.44
2019-04-05T01:31:57.202Z,18.44
2019-04-05T01:32:53.900Z,18.44
2019-04-05T01:33:50.518Z,18.44
2019-04-05T01:34:47.217Z,18.44
2019-04-05T01:35:43.917Z,18.44
2019-04-05T01:36:40.626Z,18.37
2019-04-05T01:37:37.352Z,18.44
2019-04-05T01:38:34.061Z,18.44
2019-04-05T01:39:30.776Z,18.37
2019-04-05T01:40:27.476Z,18.37
2019-04-05T01:41:24.189Z,18.37
2019-04-05T01:42:20.893Z,18.37
2019-04-05T01:43:17.622Z,18.37
2019-04-05T01:44:14.326Z,18.37
2019-04-05T01:45:11.033Z,18.37
2019-04-05T01:46:07.745Z,18.37
2019-04-05T01:47:04.448Z,18.37
2019-04-05T01:48:01.072Z,18.37
2019-04-05T01:48:57.806Z,18.37
2019-04-05T01:49:54.496Z,18.37
2019-04-05T01:50:51.200Z,18.37
2019-04-05T01:51:47.900Z,18.37
2019-04-05T01:52:44.639Z,18.37
2019-04-05T01:53:41.350Z,18.37
2019-04-05T01:54:38.057Z,18.37
2019-04-05T01:55:34.761Z,18.37
2019-04-05T01:56:31.477Z,18.37
2019-04-05T01:57:28.218Z,18.37
2019-04-05T01:58:24.926Z,18.37
2019-04-05T01:59:21.648Z,18.37
2019-04-05T02:00:18.344Z,18.37
2019-04-05T02:01:15.057Z,18.37
2019-04-05T02:02:11.790Z,18.31
2019-04-05T02:03:08.497Z,18.37
2019-04-05T02:04:05.188Z,18.31
2019-04-05T02:05:01.805Z,18.31
2019-04-05T02:05:58.512Z,18.31
2019-04-05T02:06:55.217Z,18.31
2019-04-05T02:07:51.949Z,18.31
2019-04-05T02:08:48.650Z,18.31
2019-04-05T02:09:45.344Z,18.31
2019-04-05T02:10:41.957Z,18.31
2019-04-05T02:11:38.660Z,18.31
2019-04-05T02:12:35.393Z,18.31
2019-04-05T02:13:32.100Z,18.31
2019-04-05T02:14:28.804Z,18.31
2019-04-05T02:15:25.505Z,18.31
2019-04-05T02:16:22.209Z,18.31
2019-04-05T02:17:18.917Z,18.31
2019-04-05T02:18:15.655Z,18.31
2019-04-05T02:19:12.356Z,18.31
2019-04-05T02:20:09.069Z,18.31
2019-04-05T02:21:05.785Z,18.31
2019-04-05T02:22:02.493Z,18.31
2019-04-05T02:22:59.221Z,18.31
2019-04-05T02:23:55.946Z,18.31
2019-04-05T02:24:52.653Z,18.25
2019-04-05T02:25:49.364Z,18.31
2019-04-05T02:26:46.056Z,18.25
2019-04-05T02:27:42.769Z,18.25
2019-04-05T02:28:39.501Z,18.25
2019-04-05T02:29:36.197Z,18.25
2019-04-05T02:30:32.913Z,18.25
2019-04-05T02:31:29.626Z,18.25
2019-04-05T02:32:26.325Z,18.25
2019-04-05T02:33:23.065Z,18.25
2019-04-05T02:34:19.764Z,18.25
2019-04-05T02:35:16.481Z,18.25
2019-04-05T02:36:13.189Z,18.25
2019-04-05T02:37:09.897Z,18.25
2019-04-05T02:38:06.607Z,18.25
2019-04-05T02:39:03.944Z,18.25
2019-04-05T02:40:00.675Z,18.25
2019-04-05T02:40:58.791Z,18.25
2019-04-05T02:41:56.153Z,18.25
2019-04-05T02:42:52.858Z,18.25
2019-04-05T02:43:49.606Z,18.25
2019-04-05T02:44:46.318Z,18.25
2019-04-05T02:45:43.021Z,18.25
2019-04-05T02:46:39.729Z,18.25
2019-04-05T02:47:36.441Z,18.25
2019-04-05T02:48:33.177Z,18.25
2019-04-05T02:49:29.879Z,18.25
2019-04-05T02:50:26.588Z,18.25
2019-04-05T02:51:23.283Z,18.25
2019-04-05T02:52:19.993Z,18.19
2019-04-05T02:53:16.702Z,18.25
2019-04-05T02:54:13.425Z,18.19
2019-04-05T02:55:10.137Z,18.19
2019-04-05T02:56:06.856Z,18.19
2019-04-05T02:57:03.558Z,18.19
2019-04-05T02:58:00.264Z,18.25
2019-04-05T02:58:56.995Z,18.19
2019-04-05T02:59:53.696Z,18.19
2019-04-05T03:00:50.414Z,18.19
2019-04-05T03:01:47.096Z,18.19
2019-04-05T03:02:43.713Z,18.19
2019-04-05T03:03:40.449Z,18.19
2019-04-05T03:04:37.148Z,18.19
2019-04-05T03:05:33.794Z,18.19
2019-04-05T03:06:30.465Z,18.19
2019-04-05T03:07:27.169Z,18.19
2019-04-05T03:08:23.778Z,18.19
2019-04-05T03:09:20.513Z,18.19
2019-04-05T03:10:17.221Z,18.19
2019-04-05T03:11:13.941Z,18.19
2019-04-05T03:12:10.711Z,18.19
2019-04-05T03:13:07.349Z,18.19
2019-04-05T03:14:04.085Z,18.19
2019-04-05T03:15:00.797Z,18.19
2019-04-05T03:15:57.501Z,18.19
2019-04-05T03:16:54.206Z,18.19
2019-04-05T03:17:50.906Z,18.19
2019-04-05T03:18:47.617Z,18.19
2019-04-05T03:19:44.313Z,18.19
2019-04-05T03:20:41.035Z,18.19
2019-04-05T03:21:37.747Z,18.19
2019-04-05T03:22:34.446Z,18.19
2019-04-05T03:23:31.154Z,18.19
2019-04-05T03:24:27.890Z,18.19
2019-04-05T03:25:24.594Z,18.19
2019-04-05T03:26:21.310Z,18.12
2019-04-05T03:27:18.026Z,18.19
2019-04-05T03:28:14.718Z,18.12
2019-04-05T03:29:11.476Z,18.19
2019-04-05T03:30:08.196Z,18.12
2019-04-05T03:31:04.965Z,18.12
2019-04-05T03:32:01.641Z,18.12
2019-04-05T03:32:58.335Z,18.12
2019-04-05T03:33:55.020Z,18.12
2019-04-05T03:34:51.742Z,18.12
2019-04-05T03:35:48.434Z,18.12
2019-04-05T03:36:45.141Z,18.12
2019-04-05T03:37:41.870Z,18.12
2019-04-05T03:38:38.570Z,18.12
2019-04-05T03:39:35.313Z,18.12
2019-04-05T03:40:32.010Z,18.12
2019-04-05T03:41:28.722Z,18.12
2019-04-05T03:42:25.425Z,18.12
2019-04-05T03:43:22.133Z,18.12
2019-04-05T03:44:22.761Z,18.12
2019-04-05T03:45:17.387Z,18.12
2019-04-05T03:46:14.097Z,18.12
2019-04-05T03:47:10.808Z,18.12
2019-04-05T03:48:07.503Z,18.12
2019-04-05T03:49:04.235Z,18.12
2019-04-05T03:50:00.935Z,18.12
2019-04-05T03:50:57.642Z,18.12
2019-04-05T03:51:54.349Z,18.12
2019-04-05T03:52:51.066Z,18.12
2019-04-05T03:53:47.777Z,18.12
2019-04-05T03:54:44.513Z,18.12
2019-04-05T03:55:41.229Z,18.12
2019-04-05T03:56:38.426Z,18.06
2019-04-05T03:57:35.250Z,18.12
2019-04-05T03:58:31.951Z,18.06
2019-04-05T03:59:28.684Z,18.12
2019-04-05T04:00:25.385Z,18.06
2019-04-05T04:01:22.101Z,18.06
2019-04-05T04:02:18.801Z,18.06
2019-04-05T04:03:15.516Z,18.06
2019-04-05T04:04:12.217Z,18.06
2019-04-05T04:05:08.938Z,18.06
2019-04-05T04:06:05.637Z,18.06
2019-04-05T04:07:02.347Z,18.06
2019-04-05T04:07:59.053Z,18.06
2019-04-05T04:08:55.756Z,18.06
2019-04-05T04:09:52.487Z,18.06
2019-04-05T04:10:49.185Z,18.06
2019-04-05T04:11:45.889Z,18.06
2019-04-05T04:12:42.589Z,18.06
2019-04-05T04:13:39.308Z,18.06
2019-04-05T04:14:36.049Z,18.06
2019-04-05T04:15:32.764Z,18.06
2019-04-05T04:16:29.474Z,18.06
2019-04-05T04:17:26.182Z,18.06
2019-04-05T04:18:22.885Z,18.06
2019-04-05T04:19:19.607Z,18.06
2019-04-05T04:20:16.342Z,18.06
2019-04-05T04:21:13.056Z,18.06
2019-04-05T04:22:09.753Z,18.06
2019-04-05T04:23:06.465Z,18.06
2019-04-05T04:24:03.193Z,18.06
2019-04-05T04:24:59.930Z,18.06
2019-04-05T04:25:56.610Z,18.06
2019-04-05T04:26:53.327Z,18.06
2019-04-05T04:27:50.029Z,18.06
2019-04-05T04:28:46.750Z,18.06
2019-04-05T04:29:43.467Z,18.06
2019-04-05T04:30:40.174Z,18.00
2019-04-05T04:31:36.886Z,18.06
2019-04-05T04:32:33.593Z,18.00
2019-04-05T04:33:30.305Z,18.00
2019-04-05T04:34:27.009Z,18.00
2019-04-05T04:35:23.745Z,18.00
2019-04-05T04:36:20.453Z,18.00
2019-04-05T04:37:17.164Z,18.00
2019-04-05T04:38:13.865Z,18.00
2019-04-05T04:39:10.611Z,18.00
2019-04-05T04:40:07.327Z,18.00
2019-04-05T04:41:04.031Z,18.00
2019-04-05T04:42:00.733Z,18.00
2019-04-05T04:42:57.437Z,18.00
2019-04-05T04:43:54.201Z,18.00
2019-04-05T04:44:50.910Z,18.00
2019-04-05T04:45:47.636Z,18.00
2019-04-05T04:46:44.345Z,18.00
2019-04-05T04:47:41.045Z,18.00
2019-04-05T04:48:37.749Z,18.00
2019-04-05T04:49:34.455Z,18.00
2019-04-05T04:50:31.188Z,18.00
2019-04-05T04:51:27.888Z,18.00
2019-04-05T04:52:24.593Z,18.00
2019-04-05T04:53:21.305Z,18.00
2019-04-05T04:54:18.032Z,18.00
2019-04-05T04:55:14.745Z,18.00
2019-04-05T04:56:11.452Z,18.00
2019-04-05T04:57:08.161Z,18.00
2019-04-05T04:58:04.873Z,18.00
2019-04-05T04:59:01.599Z,18.00
2019-04-05T04:59:58.311Z,18.00
2019-04-05T05:00:55.028Z,18.00
2019-04-05T05:01:51.752Z,18.00
2019-04-05T05:02:48.425Z,18.00
2019-04-05T05:03:45.133Z,18.00
2019-04-05T05:04:41.842Z,18.00
2019-04-05T05:05:38.580Z,18.00
2019-04-05T05:06:35.289Z,18.00
2019-04-05T05:07:32.005Z,17.94
2019-04-05T05:08:28.706Z,18.00
2019-04-05T05:09:25.421Z,17.94
2019-04-05T05:10:22.153Z,17.94
2019-04-05T05:11:18.856Z,17.94
2019-04-05T05:12:15.569Z,17.94
2019-04-05T05:13:12.346Z,17.94
2019-04-05T05:14:08.969Z,17.94
2019-04-05T05:15:05.680Z,17.94
2019-04-05T05:16:02.387Z,17.94
2019-04-05T05:16:59.089Z,17.94
2019-04-05T05:17:58.886Z,17.94
2019-04-05T05:18:54.314Z,17.94
2019-04-05T05:19:51.029Z,17.94
2019-04-05T05:20:47.773Z,17.94
2019-04-05T05:21:44.493Z,17.94
2019-04-05T05:22:41.197Z,17.94
2019-04-05T05:23:37.905Z,17.94
2019-04-05T05:24:34.617Z,17.94
2019-04-05T05:25:31.345Z,17.94
2019-04-05T05:26:27.958Z,17.94
2019-04-05T05:27:24.661Z,17.94
2019-04-05T05:28:21.370Z,17.94
2019-04-05T05:29:18.073Z,17.94
2019-04-05T05:30:14.781Z,17.94
2019-04-05T05:31:11.517Z,17.94
2019-04-05T05:32:09.675Z,17.94
2019-04-05T05:33:06.638Z,17.94
2019-04-05T05:34:03.345Z,17.94
2019-04-05T05:35:02.214Z,17.94
2019-04-05T05:35:58.552Z,17.94
2019-04-05T05:36:55.165Z,17.94
2019-04-05T05:37:51.869Z,17.94
2019-04-05T05:38:48.590Z,17.94
2019-04-05T05:39:45.297Z,17.94
2019-04-05T05:40:42.018Z,17.94
2019-04-05T05:41:38.750Z,17.94
2019-04-05T05:42:35.457Z,17.94
2019-04-05T05:43:32.165Z,17.87
2019-04-05T05:44:28.878Z,17.94
2019-04-05T05:45:25.568Z,17.87
2019-04-05T05:46:22.201Z,17.87
2019-04-05T05:47:18.918Z,17.87
2019-04-05T05:48:15.624Z,17.87
2019-04-05T05:49:12.327Z,17.87
2019-04-05T05:50:09.034Z,17.87
2019-04-05T05:51:05.745Z,17.87
2019-04-05T05:52:02.463Z,17.87
2019-04-05T05:52:59.168Z,17.87
2019-04-05T05:53:55.877Z,17.87
2019-04-05T05:54:52.581Z,17.87
2019-04-05T05:55:49.293Z,17.87
2019-04-05T05:56:46.017Z,17.87
2019-04-05T05:57:42.725Z,17.87
2019-04-05T05:58:39.440Z,17.87
2019-04-05T05:59:36.149Z,17.87
2019-04-05T06:00:32.857Z,17.87
2019-04-05T06:01:29.565Z,17.87
2019-04-05T06:02:26.294Z,17.87
2019-04-05T06:03:22.996Z,17.87
2019-04-05T06:04:19.704Z,17.81
2019-04-05T06:05:16.414Z,17.75
2019-04-05T06:06:13.122Z,17.81
2019-04-05T06:07:09.836Z,18.12
2019-04-05T06:08:06.552Z,19.25
2019-04-05T06:09:05.198Z,21.25
2019-04-05T06:10:01.921Z,23.81
2019-04-05T06:10:58.621Z,26.25
2019-04-05T06:11:55.321Z,28.25
2019-04-05T06:12:52.045Z,29.87
2019-04-05T06:13:48.749Z,31.00
2019-04-05T06:14:45.500Z,31.87
2019-04-05T06:15:42.165Z,32.50
2019-04-05T06:17:37.401Z,33.38
2019-04-05T06:18:34.110Z,33.69
2019-04-05T06:19:30.823Z,34.00
2019-04-05T06:20:27.522Z,34.31
2019-04-05T06:21:24.260Z,34.63
2019-04-05T06:22:20.978Z,34.88
2019-04-05T06:23:17.701Z,35.19
2019-04-05T06:24:14.400Z,35.56
2019-04-05T06:25:11.038Z,35.81
2019-04-05T06:26:07.713Z,36.13
2019-04-05T06:27:04.416Z,36.44
2019-04-05T06:28:01.137Z,36.69
2019-04-05T06:28:57.849Z,36.94
2019-04-05T06:29:54.560Z,37.19
2019-04-05T06:30:51.266Z,37.44
2019-04-05T06:31:47.971Z,37.69
2019-04-05T06:32:44.714Z,37.94
2019-04-05T06:33:41.416Z,38.19
2019-04-05T06:34:38.037Z,38.50
2019-04-05T06:35:34.753Z,38.75
2019-04-05T06:35:39.451Z,33.00
2019-04-05T06:36:31.469Z,39.00
2019-04-05T06:37:28.201Z,39.19
2019-04-05T06:38:24.915Z,39.38
2019-04-05T06:39:21.617Z,39.38
2019-04-05T06:40:18.321Z,39.13
2019-04-05T06:41:15.036Z,38.81
2019-04-05T06:42:11.741Z,38.63
2019-04-05T06:43:08.462Z,38.38
2019-04-05T06:44:05.175Z,38.25
2019-04-05T06:45:01.876Z,38.06
2019-04-05T06:45:58.684Z,37.94
2019-04-05T06:46:55.497Z,37.81
2019-04-05T06:47:52.230Z,37.63
2019-04-05T06:48:48.937Z,37.31
2019-04-05T06:49:45.640Z,36.75
2019-04-05T06:50:42.358Z,35.94
2019-04-05T06:51:39.090Z,34.81
2019-04-05T06:52:35.794Z,33.50
2019-04-05T06:53:32.528Z,32.31
2019-04-05T06:54:29.247Z,31.69
2019-04-05T06:55:25.945Z,32.13
2019-04-05T06:56:22.648Z,33.38
2019-04-05T06:57:19.361Z,35.00
2019-04-05T06:58:19.698Z,36.63
2019-04-05T06:59:14.669Z,38.00
2019-04-05T07:00:11.380Z,38.63
2019-04-05T07:01:08.089Z,38.69
2019-04-05T07:02:04.792Z,38.56
2019-04-05T07:03:01.530Z,38.38
2019-04-05T07:03:58.233Z,38.13
2019-04-05T07:04:54.941Z,37.94
2019-04-05T07:05:51.636Z,37.75
2019-04-05T07:06:48.246Z,37.50
2019-04-05T07:07:44.953Z,37.19
2019-04-05T07:08:52.965Z,36.69
2019-04-05T07:09:40.193Z,36.00
2019-04-05T07:10:36.892Z,35.06
2019-04-05T07:11:33.601Z,33.94
2019-04-05T07:12:30.313Z,32.81
2019-04-05T07:13:27.544Z,31.81
2019-04-05T07:14:24.472Z,31.44
2019-04-05T07:15:21.168Z,32.19
2019-04-05T07:16:17.881Z,33.69
2019-04-05T07:17:14.589Z,35.44
2019-04-05T07:18:11.316Z,36.94
2019-04-05T07:19:08.029Z,37.81
2019-04-05T07:20:04.764Z,38.06
2019-04-05T07:21:01.471Z,38.06
2019-04-05T07:21:58.173Z,37.94
2019-04-05T07:22:54.881Z,37.75
2019-04-05T07:23:51.614Z,37.50
2019-04-05T07:24:49.640Z,37.25
2019-04-05T07:25:46.445Z,36.81
2019-04-05T07:26:43.154Z,36.25
2019-04-05T07:27:39.861Z,35.56
2019-04-05T07:28:36.597Z,34.69
2019-04-05T07:29:33.309Z,33.63
2019-04-05T07:30:30.017Z,32.56
2019-04-05T07:31:26.725Z,31.62
2019-04-05T07:32:23.434Z,31.44
2019-04-05T07:33:20.176Z,32.25
2019-04-05T07:34:16.894Z,33.81
2019-04-05T07:35:13.600Z,35.50
2019-04-05T07:36:10.308Z,36.94
2019-04-05T07:37:07.025Z,37.69
2019-04-05T07:38:03.734Z,37.88
2019-04-05T07:39:00.464Z,37.88
2019-04-05T07:39:57.174Z,37.69
2019-04-05T07:40:53.868Z,37.50
2019-04-05T07:41:50.481Z,37.31
2019-04-05T07:42:47.200Z,36.94
2019-04-05T07:43:43.905Z,36.50
2019-04-05T07:44:40.644Z,36.00
2019-04-05T07:45:37.345Z,35.19
2019-04-05T07:46:34.061Z,34.25
2019-04-05T07:47:30.765Z,33.19
2019-04-05T07:48:27.472Z,32.06
2019-04-05T07:49:24.204Z,31.37
2019-04-05T07:50:20.918Z,31.56
2019-04-05T07:51:17.616Z,32.69
2019-04-05T07:52:14.330Z,34.25
2019-04-05T07:53:11.044Z,35.81
2019-04-05T07:54:07.770Z,37.06
2019-04-05T07:55:04.476Z,37.63
2019-04-05T07:56:01.186Z,37.75
2019-04-05T07:56:57.894Z,37.69
2019-04-05T07:57:54.592Z,37.50
2019-04-05T07:58:51.292Z,37.31
2019-04-05T07:59:47.941Z,36.94
2019-04-05T08:00:44.655Z,36.50
2019-04-05T08:01:41.373Z,35.94
2019-04-05T08:02:38.085Z,35.19
2019-04-05T08:03:34.801Z,34.31
2019-04-05T08:04:31.533Z,33.31
2019-04-05T08:05:28.241Z,32.25
2019-04-05T08:06:24.949Z,31.44
2019-04-05T08:07:21.651Z,31.37
2019-04-05T08:08:18.365Z,32.25
2019-04-05T08:09:15.104Z,33.75
2019-04-05T08:10:11.821Z,35.38
2019-04-05T08:11:08.544Z,36.69
2019-04-05T08:12:05.247Z,37.38
2019-04-05T08:13:01.948Z,37.50
2019-04-05T08:13:58.660Z,37.44
2019-04-05T08:14:55.364Z,37.25
2019-04-05T08:15:51.982Z,37.00
2019-04-05T08:16:48.689Z,36.63
2019-04-05T08:17:45.399Z,36.19
2019-04-05T08:18:42.113Z,35.69
2019-04-05T08:19:38.844Z,34.94
2019-04-05T08:20:35.549Z,34.13
2019-04-05T08:21:32.248Z,33.19
2019-04-05T08:22:28.961Z,32.25
2019-04-05T08:23:25.669Z,31.37
2019-04-05T08:24:22.398Z,31.19
2019-04-05T08:25:19.104Z,31.87
2019-04-05T08:26:15.829Z,33.25
2019-04-05T08:27:12.529Z,34.88
2019-04-05T08:28:09.233Z,36.25
2019-04-05T08:29:05.962Z,37.06
2019-04-05T08:30:02.694Z,37.25
2019-04-05T08:30:59.397Z,37.19
2019-04-05T08:31:56.109Z,37.00
2019-04-05T08:32:52.825Z,36.75
2019-04-05T08:33:49.529Z,36.31
2019-04-05T08:34:46.261Z,35.88
2019-04-05T08:35:42.956Z,35.25
2019-04-05T08:36:39.572Z,34.56
2019-04-05T08:37:36.284Z,33.75
2019-04-05T08:38:33.022Z,32.81
2019-04-05T08:39:29.724Z,31.94
2019-04-05T08:40:26.462Z,31.19
2019-04-05T08:41:23.186Z,31.06
2019-04-05T08:42:19.893Z,31.87
2019-04-05T08:43:16.597Z,33.25
2019-04-05T08:44:13.310Z,34.75
2019-04-05T08:45:10.041Z,36.06
2019-04-05T08:46:06.750Z,36.81
2019-04-05T08:47:03.456Z,36.94
2019-04-05T08:48:00.169Z,36.81
2019-04-05T08:49:09.684Z,36.56
2019-04-05T08:49:55.419Z,36.13
2019-04-05T08:50:52.157Z,35.63
2019-04-05T08:51:48.845Z,35.06
2019-04-05T08:52:45.552Z,34.44
2019-04-05T08:53:42.249Z,33.69
2019-04-05T08:54:38.870Z,32.94
2019-04-05T08:55:35.705Z,32.13
2019-04-05T08:56:32.414Z,31.37
2019-04-05T08:57:29.129Z,30.81
2019-04-05T08:58:33.256Z,31.00
2019-04-05T08:59:24.365Z,31.94
2019-04-05T09:00:21.100Z,33.25
2019-04-05T09:01:17.817Z,34.56
2019-04-05T09:02:14.533Z,35.69
2019-04-05T09:03:12.076Z,36.25
2019-04-05T09:04:08.958Z,36.19
2019-04-05T09:05:05.706Z,35.75
2019-04-05T09:06:02.415Z,35.06
2019-04-05T09:06:59.120Z,34.25
2019-04-05T09:07:55.825Z,33.31
2019-04-05T09:08:52.541Z,32.44
2019-04-05T09:09:49.249Z,31.62
2019-04-05T09:10:45.981Z,30.94
2019-04-05T09:11:42.693Z,30.44
2019-04-05T09:12:39.404Z,30.00
2019-04-05T09:13:36.109Z,29.56
2019-04-05T09:14:32.719Z,29.12
2019-04-05T09:15:29.440Z,28.75
2019-04-05T09:16:26.057Z,28.50
2019-04-05T09:17:22.765Z,28.25
2019-04-05T09:18:19.484Z,28.06
2019-04-05T09:19:23.426Z,27.81
2019-04-05T09:20:14.737Z,27.69
2019-04-05T09:21:11.447Z,27.56
2019-04-05T09:22:08.165Z,27.37
2019-04-05T09:23:04.868Z,27.31
2019-04-05T09:24:01.586Z,27.19
2019-04-05T09:24:58.293Z,27.06
2019-04-05T09:25:55.032Z,26.94
2019-04-05T09:26:54.141Z,26.81
2019-04-05T09:27:50.250Z,26.75
2019-04-05T09:28:46.949Z,26.62
2019-04-05T09:29:43.673Z,26.50
2019-04-05T09:30:40.418Z,26.44
2019-04-05T09:31:37.137Z,26.31
2019-04-05T09:32:36.469Z,26.25
2019-04-05T09:33:32.357Z,26.12
2019-04-05T09:34:29.069Z,26.06
2019-04-05T09:35:25.813Z,26.00
2019-04-05T09:36:22.527Z,25.88
2019-04-05T09:37:19.233Z,25.81
2019-04-05T09:38:15.936Z,25.75
2019-04-05T09:39:15.545Z,25.69
2019-04-05T09:40:11.068Z,25.56
2019-04-05T09:41:10.607Z,25.50
2019-04-05T09:42:07.313Z,25.44
2019-04-05T09:43:04.022Z,25.37
2019-04-05T09:44:00.733Z,25.31
2019-04-05T09:44:57.432Z,25.25
2019-04-05T09:45:54.161Z,25.12
2019-04-05T09:46:51.282Z,25.12
2019-04-05T09:47:48.085Z,25.00
2019-04-05T09:48:44.803Z,24.94
2019-04-05T09:49:41.501Z,24.87
2019-04-05T09:50:38.210Z,24.81
2019-04-05T09:51:34.917Z,24.75
2019-04-05T09:52:31.624Z,24.69
2019-04-05T09:53:28.328Z,24.63
2019-04-05T09:54:25.025Z,24.56
2019-04-05T09:55:21.734Z,24.50
2019-04-05T09:56:18.560Z,24.44
2019-04-05T09:57:15.275Z,24.37
2019-04-05T09:58:11.997Z,24.31
2019-04-05T09:59:08.705Z,24.25
2019-04-05T10:00:06.204Z,24.25
2019-04-05T10:01:03.321Z,24.19
2019-04-05T10:02:00.053Z,24.12
2019-04-05T10:02:56.763Z,24.06
2019-04-05T10:03:53.484Z,24.00
2019-04-05T10:04:50.210Z,23.94
2019-04-05T10:05:46.909Z,23.87
2019-04-05T10:06:43.619Z,23.87
2019-04-05T10:07:53.765Z,23.81
2019-04-05T10:08:38.857Z,23.75
2019-04-05T10:09:35.562Z,23.69
2019-04-05T10:10:32.276Z,23.69
2019-04-05T10:11:28.992Z,23.62
2019-04-05T10:12:25.724Z,23.56
2019-04-05T10:13:22.455Z,23.50
2019-04-05T10:14:19.137Z,23.50
2019-04-05T10:15:15.863Z,23.44
2019-04-05T10:16:12.564Z,23.38
2019-04-05T10:17:09.180Z,23.38
2019-04-05T10:18:05.909Z,23.31
2019-04-05T10:19:02.617Z,23.25
2019-04-05T10:19:59.325Z,23.25
2019-04-05T10:20:56.083Z,23.19
2019-04-05T10:21:52.758Z,23.12
2019-04-05T10:22:49.582Z,23.12
2019-04-05T10:23:46.276Z,23.06
2019-04-05T10:24:42.898Z,23.00
2019-04-05T10:25:39.614Z,23.00
2019-04-05T10:26:36.316Z,22.94
2019-04-05T10:27:33.022Z,22.87
2019-04-05T10:28:29.763Z,22.87
2019-04-05T10:29:26.476Z,22.81
2019-04-05T10:30:23.194Z,22.81
2019-04-05T10:31:19.807Z,22.75
2019-04-05T10:32:16.514Z,22.69
2019-04-05T10:33:13.213Z,22.69
2019-04-05T10:34:09.932Z,22.62
2019-04-05T10:35:06.637Z,22.62
2019-04-05T10:36:03.424Z,22.56
2019-04-05T10:37:00.046Z,22.50
2019-04-05T10:37:58.323Z,22.50
2019-04-05T10:38:55.292Z,22.50
2019-04-05T10:39:51.997Z,22.44
2019-04-05T10:40:48.707Z,22.37
2019-04-05T10:41:45.413Z,22.37
2019-04-05T10:42:42.117Z,22.31
2019-04-05T10:43:38.842Z,22.31
2019-04-05T10:44:35.568Z,22.25
2019-04-05T10:45:32.285Z,22.25
2019-04-05T10:46:29.005Z,22.19
2019-04-05T10:47:25.709Z,22.19
2019-04-05T10:48:22.414Z,22.13
2019-04-05T10:49:19.149Z,22.13
2019-04-05T10:50:15.858Z,22.13
2019-04-05T10:51:12.566Z,22.06
2019-04-05T10:52:09.273Z,22.06
2019-04-05T10:53:05.981Z,22.00
2019-04-05T10:54:02.697Z,22.00
2019-04-05T10:54:59.408Z,21.94
2019-04-05T10:55:56.112Z,21.94
2019-04-05T10:56:52.827Z,21.94
2019-04-05T10:57:49.530Z,21.87
2019-04-05T10:58:46.237Z,21.87
2019-04-05T10:59:42.983Z,21.81
2019-04-05T11:00:39.689Z,21.81
2019-04-05T11:01:36.384Z,21.75
2019-04-05T11:02:32.998Z,21.75
2019-04-05T11:03:29.702Z,21.75
2019-04-05T11:04:26.405Z,21.69
2019-04-05T11:05:23.136Z,21.69
2019-04-05T11:06:19.837Z,21.69
2019-04-05T11:07:16.541Z,21.62
2019-04-05T11:08:13.265Z,21.62
2019-04-05T11:09:10.013Z,21.56
2019-04-05T11:10:06.770Z,21.56
2019-04-05T11:11:03.783Z,21.50
2019-04-05T11:12:00.482Z,21.50
2019-04-05T11:12:57.189Z,21.50
2019-04-05T11:13:53.897Z,21.44
2019-04-05T11:14:50.632Z,21.44
2019-04-05T11:15:47.351Z,21.44
2019-04-05T11:16:44.065Z,21.44
2019-04-05T11:17:42.378Z,21.37
2019-04-05T11:18:39.276Z,21.37
2019-04-05T11:19:36.423Z,21.37
2019-04-05T11:20:33.197Z,21.31
2019-04-05T11:21:29.941Z,21.31
2019-04-05T11:22:26.650Z,21.31
2019-04-05T11:23:23.357Z,21.31
2019-04-05T11:24:20.064Z,21.31
2019-04-05T11:25:16.778Z,21.37
2019-04-05T11:26:13.509Z,21.37
2019-04-05T11:27:10.221Z,21.37
2019-04-05T11:28:06.924Z,21.44
2019-04-05T11:29:03.624Z,21.50
2019-04-05T11:30:00.342Z,21.62
2019-04-05T11:30:57.071Z,21.69
2019-04-05T11:31:57.364Z,21.81
2019-04-05T11:32:52.293Z,21.87
2019-04-05T11:33:49.010Z,22.00
2019-04-05T11:34:45.711Z,22.13
2019-04-05T11:35:42.445Z,22.25
2019-04-05T11:36:39.148Z,22.31
2019-04-05T11:37:35.857Z,22.44
2019-04-05T11:38:32.567Z,22.56
2019-04-05T11:39:29.265Z,22.62
2019-04-05T11:40:25.969Z,22.69
2019-04-05T11:41:22.677Z,22.81
2019-04-05T11:42:19.385Z,22.87
2019-04-05T11:43:16.101Z,22.94
2019-04-05T11:44:12.817Z,23.00
2019-04-05T11:45:09.549Z,23.06
2019-04-05T11:46:06.257Z,23.12
2019-04-05T11:47:02.962Z,23.12
2019-04-05T11:47:59.664Z,23.19
2019-04-05T11:48:56.381Z,23.19
2019-04-05T11:49:55.134Z,23.19
2019-04-05T11:50:51.688Z,23.19
2019-04-05T11:51:48.393Z,25.81
2019-04-05T11:52:45.116Z,27.50
2019-04-05T11:53:41.823Z,27.37
2019-04-05T11:54:38.529Z,26.69
2019-04-05T11:55:35.241Z,27.13
2019-04-05T11:56:31.949Z,28.75
2019-04-05T11:57:28.665Z,30.06
2019-04-05T11:58:25.373Z,30.75
2019-04-05T11:59:22.082Z,31.06
2019-04-05T12:00:23.389Z,31.19
2019-04-05T12:01:30.042Z,31.25
2019-04-05T12:02:48.339Z,31.31
2019-04-05T12:03:45.065Z,31.75
2019-04-05T12:04:42.910Z,32.38
2019-04-05T12:05:39.809Z,32.81
2019-04-05T12:06:36.426Z,33.13
2019-04-05T12:07:33.163Z,33.31
2019-04-05T12:08:29.857Z,33.44
2019-04-05T12:09:26.573Z,33.50
2019-04-05T12:10:23.289Z,33.44
2019-04-05T12:11:20.022Z,33.19